createdAt,value
2023-04-01T00:01:05.680Z,10.83
2023-04-01T00:03:34.567Z,10.82
2023-04-01T00:06:03.256Z,10.86
2023-04-01T00:08:30.924Z,11.04
2023-04-01T00:10:58.308Z,11.13
2023-04-01T00:13:27.722Z,11.10
2023-04-01T00:15:56.359Z,11.11
2023-04-01T00:18:24.500Z,11.14
2023-04-01T00:20:52.817Z,11.47
2023-04-01T00:23:21.193Z,11.38
2023-04-01T00:25:50.695Z,11.38
2023-04-01T00:28:20.414Z,11.54
2023-04-01T00:30:48.402Z,11.34
2023-04-01T00:33:16.899Z,11.29
2023-04-01T00:35:45.767Z,11.19
2023-04-01T00:38:13.481Z,10.89
2023-04-01T00:40:46.413Z,10.84
2023-04-01T00:43:20.566Z,11.11
2023-04-01T00:45:50.418Z,10.69
2023-04-01T00:48:39.242Z,10.45
2023-04-01T00:51:18.594Z,10.42
2023-04-01T00:53:49.870Z,10.17
2023-04-01T00:56:22.277Z,10.38
2023-04-01T00:58:59.701Z,10.33
2023-04-01T01:01:29.117Z,10.14
2023-04-01T01:03:56.512Z,9.81
2023-04-01T01:07:07.495Z,9.97
2023-04-01T01:10:06.085Z,10.26
2023-04-01T01:12:39.433Z,10.45
2023-04-01T01:15:34.350Z,10.12
2023-04-01T01:18:21.961Z,10.36
2023-04-01T01:21:07.821Z,10.46
2023-04-01T01:23:46.875Z,10.69
2023-04-01T01:26:38.680Z,10.76
2023-04-01T01:29:27.008Z,10.39
2023-04-01T01:31:54.352Z,9.89
2023-04-01T01:34:53.219Z,9.96
2023-04-01T01:37:23.873Z,9.81
2023-04-01T01:39:56.441Z,10.05
2023-04-01T01:42:26.950Z,10.05
2023-04-01T01:44:56.606Z,10.25
2023-04-01T01:47:26.426Z,10.26
2023-04-01T01:49:56.438Z,10.41
2023-04-01T01:52:24.805Z,10.36
2023-04-01T01:54:57.439Z,10.27
2023-04-01T01:57:32.915Z,10.44
2023-04-01T02:00:14.784Z,10.55
2023-04-01T02:02:47.409Z,10.64
2023-04-01T02:05:22.326Z,10.74
2023-04-01T02:07:55.125Z,11.03
2023-04-01T02:10:26.246Z,10.94
2023-04-01T02:12:59.296Z,10.89
2023-04-01T02:15:31.939Z,10.83
2023-04-01T02:18:00.061Z,10.78
2023-04-01T02:20:29.274Z,10.62
2023-04-01T02:23:01.006Z,10.74
2023-04-01T02:25:31.938Z,10.77
2023-04-01T02:28:01.243Z,10.69
2023-04-01T02:30:30.936Z,10.56
2023-04-01T02:33:00.039Z,10.71
2023-04-01T02:35:28.228Z,10.84
2023-04-01T02:37:56.539Z,10.85
2023-04-01T02:40:24.014Z,10.62
2023-04-01T02:42:51.886Z,10.47
2023-04-01T02:45:19.226Z,10.46
2023-04-01T02:47:46.636Z,10.28
2023-04-01T02:50:13.875Z,10.08
2023-04-01T02:52:41.074Z,10.17
2023-04-01T02:55:08.802Z,10.20
2023-04-01T02:57:36.188Z,10.32
2023-04-01T03:00:03.865Z,10.47
2023-04-01T03:02:31.684Z,10.65
2023-04-01T03:04:58.948Z,10.51
2023-04-01T03:07:26.265Z,9.96
2023-04-01T03:09:53.581Z,9.97
2023-04-01T03:12:20.973Z,9.63
2023-04-01T03:14:51.405Z,9.38
2023-04-01T03:17:18.543Z,9.15
2023-04-01T03:19:46.300Z,8.88
2023-04-01T03:22:14.085Z,8.98
2023-04-01T03:24:41.389Z,8.83
2023-04-01T03:27:08.545Z,8.43
2023-04-01T03:29:35.970Z,8.14
2023-04-01T03:32:03.537Z,8.49
2023-04-01T03:34:30.705Z,8.89
2023-04-01T03:36:58.867Z,9.21
2023-04-01T03:39:26.495Z,9.15
2023-04-01T03:41:53.983Z,9.62
2023-04-01T03:44:21.494Z,10.00
2023-04-01T03:46:52.055Z,10.02
2023-04-01T03:49:19.287Z,10.32
2023-04-01T03:51:46.828Z,10.20
2023-04-01T03:54:14.404Z,10.57
2023-04-01T03:56:42.316Z,10.69
2023-04-01T03:59:09.725Z,10.85
2023-04-01T04:01:37.040Z,10.97
2023-04-01T04:04:04.695Z,10.95
2023-04-01T04:06:32.137Z,10.89
2023-04-01T04:08:59.202Z,10.91
2023-04-01T04:11:27.460Z,10.96
2023-04-01T04:13:56.046Z,10.79
2023-04-01T04:16:24.070Z,10.82
2023-04-01T04:18:57.464Z,10.96
2023-04-01T04:21:24.697Z,10.67
2023-04-01T04:23:52.566Z,10.94
2023-04-01T04:26:21.024Z,11.18
2023-04-01T04:28:56.099Z,11.16
2023-04-01T04:31:25.649Z,11.09
2023-04-01T04:33:55.859Z,11.42
2023-04-01T04:36:24.099Z,11.54
2023-04-01T04:38:52.669Z,11.53
2023-04-01T04:41:23.200Z,11.20
2023-04-01T04:43:56.839Z,11.16
2023-04-01T04:46:26.200Z,11.10
2023-04-01T04:49:07.344Z,11.27
2023-04-01T04:51:36.879Z,10.78
2023-04-01T04:54:06.093Z,10.98
2023-04-01T04:56:46.331Z,11.05
2023-04-01T04:59:13.813Z,10.93
2023-04-01T05:01:53.584Z,10.99
2023-04-01T05:04:22.654Z,11.09
2023-04-01T05:06:50.459Z,11.18
2023-04-01T05:09:18.396Z,10.80
2023-04-01T05:11:47.594Z,10.94
2023-04-01T05:14:16.837Z,10.81
2023-04-01T05:16:51.690Z,10.56
2023-04-01T05:19:22.912Z,10.66
2023-04-01T05:21:51.160Z,10.91
2023-04-01T05:24:18.253Z,10.94
2023-04-01T05:26:45.554Z,11.44
2023-04-01T05:29:12.862Z,11.64
2023-04-01T05:31:40.802Z,11.77
2023-04-01T05:34:08.764Z,11.69
2023-04-01T05:36:36.825Z,11.66
2023-04-01T05:39:04.550Z,11.48
2023-04-01T05:41:33.096Z,11.48
2023-04-01T05:44:00.346Z,11.32
2023-04-01T05:46:53.853Z,11.58
2023-04-01T05:49:23.318Z,11.80
2023-04-01T05:51:52.331Z,11.79
2023-04-01T05:54:20.984Z,12.02
2023-04-01T05:56:48.755Z,12.00
2023-04-01T05:59:16.415Z,12.28
2023-04-01T06:01:43.512Z,12.48
2023-04-01T06:04:19.647Z,12.77
2023-04-01T06:06:47.404Z,12.73
2023-04-01T06:09:16.328Z,12.80
2023-04-01T06:12:09.584Z,13.08
2023-04-01T06:15:00.260Z,13.20
2023-04-01T06:17:31.553Z,13.09
2023-04-01T06:20:13.570Z,12.97
2023-04-01T06:22:40.752Z,13.19
2023-04-01T06:25:24.190Z,13.14
2023-04-01T06:28:03.681Z,13.18
2023-04-01T06:31:03.560Z,13.27
2023-04-01T06:34:19.302Z,13.50
2023-04-01T06:36:49.727Z,13.52
2023-04-01T06:39:43.663Z,13.62
2023-04-01T06:42:36.192Z,13.36
2023-04-01T06:45:19.367Z,13.19
2023-04-01T06:48:07.946Z,13.25
2023-04-01T06:51:22.410Z,13.46
2023-04-01T06:53:59.282Z,13.90
2023-04-01T06:57:42.385Z,14.23
2023-04-01T07:00:28.570Z,14.22
2023-04-01T07:03:06.976Z,14.47
2023-04-01T07:05:37.386Z,14.60
2023-04-01T07:08:10.422Z,14.68
2023-04-01T07:10:39.001Z,14.80
2023-04-01T07:13:32.237Z,14.87
2023-04-01T07:16:29.404Z,15.15
2023-04-01T07:19:09.881Z,14.93
2023-04-01T07:21:59.256Z,15.04
2023-04-01T07:24:44.344Z,14.95
2023-04-01T07:27:12.713Z,15.17
2023-04-01T07:29:41.458Z,15.10
2023-04-01T07:32:19.613Z,15.15
2023-04-01T07:35:10.825Z,15.16
2023-04-01T07:37:49.885Z,15.04
2023-04-01T07:40:33.264Z,15.01
2023-04-01T07:43:09.639Z,14.87
2023-04-01T07:45:59.158Z,14.73
2023-04-01T07:48:36.734Z,14.81
2023-04-01T07:51:18.156Z,14.74
2023-04-01T07:53:54.461Z,14.96
2023-04-01T07:57:04.327Z,15.00
2023-04-01T07:59:52.007Z,15.15
2023-04-01T08:02:54.651Z,15.47
2023-04-01T08:05:35.705Z,15.63
2023-04-01T08:08:18.285Z,15.75
2023-04-01T08:11:21.424Z,15.73
2023-04-01T08:14:20.488Z,15.67
2023-04-01T08:17:28.944Z,15.94
2023-04-01T08:20:01.217Z,16.16
2023-04-01T08:22:41.762Z,16.30
2023-04-01T08:25:28.161Z,15.97
2023-04-01T08:28:06.054Z,15.97
2023-04-01T08:30:49.314Z,15.80
2023-04-01T08:33:33.054Z,15.76
2023-04-01T08:36:32.337Z,15.86
2023-04-01T08:39:32.344Z,15.62
2023-04-01T08:42:37.208Z,16.10
2023-04-01T08:45:50.265Z,16.12
2023-04-01T08:48:44.364Z,16.24
2023-04-01T08:51:25.645Z,16.43
2023-04-01T08:53:52.771Z,16.68
2023-04-01T08:56:46.538Z,16.86
2023-04-01T08:59:35.931Z,17.01
2023-04-01T09:02:24.110Z,17.16
2023-04-01T09:05:03.316Z,17.18
2023-04-01T09:07:56.961Z,17.08
2023-04-01T09:11:04.082Z,16.99
2023-04-01T09:14:06.480Z,16.94
2023-04-01T09:17:01.988Z,16.98
2023-04-01T09:20:01.195Z,17.01
2023-04-01T09:22:43.018Z,16.93
2023-04-01T09:25:28.665Z,16.60
2023-04-01T09:28:11.738Z,16.81
2023-04-01T09:31:16.331Z,17.03
2023-04-01T09:34:23.676Z,17.16
2023-04-01T09:37:32.615Z,17.39
2023-04-01T09:40:22.367Z,17.26
2023-04-01T09:43:27.436Z,17.39
2023-04-01T09:46:10.815Z,17.37
2023-04-01T09:48:52.704Z,17.31
2023-04-01T09:51:26.203Z,17.41
2023-04-01T09:54:25.165Z,17.59
2023-04-01T09:56:56.234Z,17.47
2023-04-01T09:59:44.736Z,17.58
2023-04-01T10:02:37.728Z,17.63
2023-04-01T10:05:31.867Z,17.79
2023-04-01T10:08:26.601Z,17.77
2023-04-01T10:11:24.023Z,17.70
2023-04-01T10:13:55.020Z,17.68
2023-04-01T10:16:40.626Z,17.48
2023-04-01T10:19:18.753Z,17.48
2023-04-01T10:21:46.075Z,17.51
2023-04-01T10:24:46.237Z,17.69
2023-04-01T10:27:31.221Z,17.53
2023-04-01T10:30:22.164Z,17.73
2023-04-01T10:33:16.754Z,17.81
2023-04-01T10:35:45.577Z,18.05
2023-04-01T10:38:31.793Z,18.01
2023-04-01T10:41:11.878Z,18.22
2023-04-01T10:44:14.773Z,18.47
2023-04-01T10:46:59.916Z,17.92
2023-04-01T10:49:57.535Z,17.78
2023-04-01T10:52:46.150Z,18.08
2023-04-01T10:55:52.330Z,18.01
2023-04-01T10:59:03.780Z,18.14
2023-04-01T11:02:31.787Z,18.47
2023-04-01T11:05:32.906Z,18.78
2023-04-01T11:08:25.594Z,18.66
2023-04-01T11:11:16.143Z,18.92
2023-04-01T11:13:50.271Z,18.83
2023-04-01T11:16:33.291Z,18.87
2023-04-01T11:19:16.691Z,19.04
2023-04-01T11:22:10.753Z,18.33
2023-04-01T11:25:03.092Z,18.82
2023-04-01T11:27:55.949Z,18.91
2023-04-01T11:30:45.051Z,18.78
2023-04-01T11:33:35.394Z,18.46
2023-04-01T11:36:09.090Z,18.71
2023-04-01T11:39:11.517Z,19.00
2023-04-01T11:42:08.763Z,19.25
2023-04-01T11:45:14.738Z,19.29
2023-04-01T11:47:49.383Z,18.91
2023-04-01T11:50:33.071Z,18.88
2023-04-01T11:53:24.591Z,18.71
2023-04-01T11:56:15.991Z,18.63
2023-04-01T11:58:59.026Z,18.95
2023-04-01T12:01:43.806Z,19.23
2023-04-01T12:04:25.083Z,19.24
2023-04-01T12:07:12.306Z,19.17
2023-04-01T12:09:55.557Z,19.10
2023-04-01T12:12:58.063Z,19.46
2023-04-01T12:15:40.087Z,19.41
2023-04-01T12:18:30.449Z,19.58
2023-04-01T12:21:21.847Z,19.24
2023-04-01T12:24:07.547Z,19.47
2023-04-01T12:26:46.648Z,19.71
2023-04-01T12:29:38.299Z,19.68
2023-04-01T12:32:34.542Z,19.73
2023-04-01T12:35:07.799Z,19.85
2023-04-01T12:37:42.795Z,19.72
2023-04-01T12:40:11.239Z,19.84
2023-04-01T12:42:52.816Z,19.88
2023-04-01T12:45:28.980Z,19.94
2023-04-01T12:48:18.133Z,19.50
2023-04-01T12:51:27.974Z,19.10
2023-04-01T12:54:14.071Z,18.76
2023-04-01T12:57:06.267Z,18.48
2023-04-01T12:59:33.293Z,18.58
2023-04-01T13:02:13.589Z,18.62
2023-04-01T13:05:12.366Z,18.96
2023-04-01T13:07:51.430Z,19.18
2023-04-01T13:10:29.151Z,19.42
2023-04-01T13:13:31.840Z,19.44
2023-04-01T13:16:18.128Z,19.11
2023-04-01T13:19:10.019Z,18.73
2023-04-01T13:21:52.674Z,18.68
2023-04-01T13:24:33.986Z,18.69
2023-04-01T13:27:15.637Z,18.89
2023-04-01T13:29:53.877Z,19.06
2023-04-01T13:32:43.872Z,19.27
2023-04-01T13:35:17.356Z,19.61
2023-04-01T13:38:03.124Z,19.77
2023-04-01T13:41:02.853Z,19.74
2023-04-01T13:43:43.489Z,19.93
2023-04-01T13:46:29.836Z,20.07
2023-04-01T13:48:59.971Z,19.73
2023-04-01T13:52:28.156Z,19.53
2023-04-01T13:55:17.017Z,19.20
2023-04-01T13:58:19.395Z,19.05
2023-04-01T14:01:01.795Z,18.83
2023-04-01T14:04:00.740Z,18.68
2023-04-01T14:07:05.488Z,19.01
2023-04-01T14:09:51.323Z,19.11
2023-04-01T14:12:27.516Z,19.31
2023-04-01T14:14:55.078Z,18.83
2023-04-01T14:17:45.793Z,18.59
2023-04-01T14:20:31.908Z,18.77
2023-04-01T14:23:06.482Z,18.76
2023-04-01T14:25:56.334Z,18.82
2023-04-01T14:28:40.234Z,18.78
2023-04-01T14:31:28.724Z,18.92
2023-04-01T14:34:26.767Z,19.03
2023-04-01T14:37:09.155Z,18.94
2023-04-01T14:39:58.795Z,18.73
2023-04-01T14:42:28.759Z,19.02
2023-04-01T14:45:14.407Z,19.22
2023-04-01T14:48:18.893Z,19.45
2023-04-01T14:50:51.495Z,19.42
2023-04-01T14:53:24.576Z,19.11
2023-04-01T14:56:03.932Z,18.99
2023-04-01T14:58:51.381Z,19.16
2023-04-01T15:01:35.594Z,19.11
2023-04-01T15:04:39.642Z,19.18
2023-04-01T15:07:27.971Z,19.13
2023-04-01T15:10:23.825Z,18.97
2023-04-01T15:13:11.852Z,18.93
2023-04-01T15:16:10.181Z,19.09
2023-04-01T15:19:08.609Z,19.15
2023-04-01T15:22:09.045Z,18.86
2023-04-01T15:24:47.830Z,18.32
2023-04-01T15:27:43.262Z,18.24
2023-04-01T15:30:29.048Z,17.95
2023-04-01T15:33:08.430Z,18.11
2023-04-01T15:35:51.371Z,18.01
2023-04-01T15:38:39.891Z,18.04
2023-04-01T15:41:21.702Z,17.69
2023-04-01T15:43:53.052Z,17.78
2023-04-01T15:46:42.334Z,17.59
2023-04-01T15:49:14.321Z,17.46
2023-04-01T15:52:05.381Z,17.62
2023-04-01T15:55:00.880Z,17.59
2023-04-01T15:57:47.985Z,17.35
2023-04-01T16:00:28.463Z,17.13
2023-04-01T16:03:18.070Z,17.18
2023-04-01T16:05:51.406Z,16.90
2023-04-01T16:08:18.515Z,16.60
2023-04-01T16:10:54.484Z,16.19
2023-04-01T16:13:45.394Z,15.98
2023-04-01T16:16:44.485Z,15.80
2023-04-01T16:19:27.722Z,15.61
2023-04-01T16:22:02.700Z,15.33
2023-04-01T16:24:52.446Z,15.31
2023-04-01T16:27:28.521Z,15.03
2023-04-01T16:30:03.948Z,14.81
2023-04-01T16:32:42.677Z,14.70
2023-04-01T16:35:26.525Z,14.64
2023-04-01T16:38:05.461Z,14.43
2023-04-01T16:40:38.582Z,14.36
2023-04-01T16:43:29.281Z,14.19
2023-04-01T16:46:42.173Z,14.20
2023-04-01T16:49:12.299Z,14.05
2023-04-01T16:52:15.261Z,13.98
2023-04-01T16:55:01.619Z,13.95
2023-04-01T16:57:44.765Z,13.78
2023-04-01T17:00:18.984Z,13.73
2023-04-01T17:03:13.255Z,13.80
2023-04-01T17:05:44.378Z,13.71
2023-04-01T17:08:40.596Z,13.63
2023-04-01T17:11:26.141Z,13.71
2023-04-01T17:14:31.802Z,13.66
2023-04-01T17:17:26.366Z,13.62
2023-04-01T17:20:10.406Z,13.60
2023-04-01T17:22:54.207Z,13.60
2023-04-01T17:25:43.501Z,13.61
2023-04-01T17:28:17.333Z,13.57
2023-04-01T17:31:32.453Z,13.57
2023-04-01T17:34:29.246Z,13.51
2023-04-01T17:37:33.426Z,13.49
2023-04-01T17:40:19.668Z,13.46
2023-04-01T17:43:09.311Z,13.32
2023-04-01T17:45:57.472Z,13.22
2023-04-01T17:48:48.290Z,13.49
2023-04-01T17:51:27.731Z,13.39
2023-04-01T17:54:46.039Z,13.44
2023-04-01T17:57:34.978Z,13.35
2023-04-01T18:00:18.906Z,13.37
2023-04-01T18:03:23.846Z,13.45
2023-04-01T18:06:19.997Z,13.49
2023-04-01T18:09:18.896Z,13.63
2023-04-01T18:11:54.655Z,13.60
2023-04-01T18:14:40.475Z,13.68
2023-04-01T18:17:40.056Z,13.71
2023-04-01T18:20:20.953Z,13.66
2023-04-01T18:22:54.932Z,13.66
2023-04-01T18:25:30.557Z,13.62
2023-04-01T18:28:19.896Z,13.64
2023-04-01T18:31:08.484Z,13.34
2023-04-01T18:33:54.925Z,13.43
2023-04-01T18:36:26.371Z,13.19
2023-04-01T18:39:04.503Z,13.28
2023-04-01T18:41:53.438Z,13.23
2023-04-01T18:44:44.398Z,13.22
2023-04-01T18:47:36.367Z,13.00
2023-04-01T18:50:37.690Z,13.15
2023-04-01T18:53:39.530Z,13.02
2023-04-01T18:56:14.647Z,12.80
2023-04-01T18:58:57.211Z,12.79
2023-04-01T19:01:39.077Z,12.86
2023-04-01T19:04:35.082Z,12.83
2023-04-01T19:07:24.956Z,12.49
2023-04-01T19:09:53.042Z,12.61
2023-04-01T19:12:54.586Z,12.85
2023-04-01T19:15:40.664Z,12.79
2023-04-01T19:18:45.463Z,12.82
2023-04-01T19:21:38.981Z,12.69
2023-04-01T19:24:27.761Z,12.86
2023-04-01T19:27:05.412Z,12.88
2023-04-01T19:29:41.835Z,12.82
2023-04-01T19:32:27.331Z,12.89
2023-04-01T19:35:15.382Z,13.02
2023-04-01T19:38:13.450Z,13.05
2023-04-01T19:40:53.057Z,13.05
2023-04-01T19:43:40.016Z,12.98
2023-04-01T19:46:23.753Z,13.15
2023-04-01T19:49:26.005Z,13.13
2023-04-01T19:52:12.757Z,13.13
2023-04-01T19:55:18.564Z,13.26
2023-04-01T19:58:27.782Z,13.35
2023-04-01T20:00:59.169Z,13.24
2023-04-01T20:03:53.760Z,13.19
2023-04-01T20:06:41.158Z,13.24
2023-04-01T20:09:34.310Z,13.36
2023-04-01T20:12:07.906Z,13.28
2023-04-01T20:14:51.483Z,13.17
2023-04-01T20:17:27.741Z,13.30
2023-04-01T20:20:05.425Z,13.36
2023-04-01T20:22:45.289Z,13.21
2023-04-01T20:25:27.576Z,13.19
2023-04-01T20:28:05.441Z,13.19
2023-04-01T20:30:38.586Z,13.27
2023-04-01T20:33:44.374Z,13.36
2023-04-01T20:36:14.677Z,13.33
2023-04-01T20:39:12.470Z,13.45
2023-04-01T20:41:48.748Z,13.34
2023-04-01T20:44:28.556Z,13.11
2023-04-01T20:46:58.134Z,13.34
2023-04-01T20:49:49.567Z,13.19
2023-04-01T20:52:16.674Z,13.17
2023-04-01T20:55:18.051Z,13.00
2023-04-01T20:58:11.274Z,13.00
2023-04-01T21:01:06.656Z,12.88
2023-04-01T21:04:01.676Z,12.90
2023-04-01T21:07:01.596Z,12.88
2023-04-01T21:09:45.648Z,12.66
2023-04-01T21:12:37.908Z,12.76
2023-04-01T21:15:30.886Z,12.68
2023-04-01T21:18:13.226Z,12.40
2023-04-01T21:21:27.267Z,12.30
2023-04-01T21:23:56.951Z,12.11
2023-04-01T21:26:50.047Z,12.21
2023-04-01T21:29:45.011Z,12.07
2023-04-01T21:32:29.188Z,12.06
2023-04-01T21:35:22.266Z,12.14
2023-04-01T21:38:21.773Z,12.21
2023-04-01T21:41:21.069Z,12.27
2023-04-01T21:44:06.886Z,12.06
2023-04-01T21:47:06.442Z,12.04
2023-04-01T21:49:55.186Z,12.10
2023-04-01T21:53:13.568Z,12.06
2023-04-01T21:55:43.662Z,11.94
2023-04-01T21:58:19.600Z,11.86
2023-04-01T22:01:01.929Z,11.81
2023-04-01T22:03:56.534Z,11.72
2023-04-01T22:07:01.026Z,11.80
2023-04-01T22:10:12.991Z,11.77
2023-04-01T22:12:51.455Z,11.75
2023-04-01T22:15:30.588Z,11.69
2023-04-01T22:18:35.429Z,11.62
2023-04-01T22:21:24.810Z,11.73
2023-04-01T22:24:24.605Z,11.59
2023-04-01T22:27:02.496Z,11.67
2023-04-01T22:29:57.653Z,11.89
2023-04-01T22:32:51.943Z,11.81
2023-04-01T22:35:30.819Z,11.79
2023-04-01T22:38:57.021Z,12.02
2023-04-01T22:41:34.868Z,12.00
2023-04-01T22:44:02.158Z,11.91
2023-04-01T22:46:54.543Z,11.88
2023-04-01T22:49:29.123Z,11.79
2023-04-01T22:52:06.565Z,11.83
2023-04-01T22:54:47.960Z,11.73
2023-04-01T22:58:16.354Z,11.60
2023-04-01T23:00:48.238Z,11.77
2023-04-01T23:03:38.281Z,11.79
2023-04-01T23:06:06.271Z,11.69
2023-04-01T23:08:52.381Z,11.67
2023-04-01T23:11:23.004Z,11.93
2023-04-01T23:14:19.759Z,11.85
2023-04-01T23:17:03.835Z,11.82
2023-04-01T23:19:37.217Z,11.85
2023-04-01T23:22:47.625Z,11.79
2023-04-01T23:25:36.853Z,11.79
2023-04-01T23:28:16.921Z,11.79
2023-04-01T23:30:43.976Z,11.74
2023-04-01T23:33:31.990Z,11.81
2023-04-01T23:36:08.960Z,11.75
2023-04-01T23:38:40.628Z,11.75
2023-04-01T23:41:09.281Z,11.73
2023-04-01T23:43:42.811Z,11.77
2023-04-01T23:46:10.322Z,11.63
2023-04-01T23:48:41.145Z,11.97
2023-04-01T23:51:30.157Z,12.06
2023-04-01T23:54:14.407Z,11.75
2023-04-01T23:56:46.839Z,11.77
2023-04-01T23:59:20.528Z,11.80
